KBIS/BIS METAR and TAF weather

Enter ICAO airport designator
Station Type Date Time Source
KBIS METAR 2020/11/27 13:52 UTC NOAA

KBIS 271352Z 00000KT 10SM CLR M09/M11 A3006 RMK AO2 SLP205 T10891106


Station Type Date Time Source
KBIS Decoded METAR 2020/11/27 13:52 UTC NOAA

BISMARCK MUNICIPAL AIRPORT, ND, United States (KBIS) 46-47N 100-45W 503M
Nov 27, 2020 - 08:52 AM EST / 2020.11.27 1352 UTC
Wind: Calm:0
Visibility: 10 mile(s):0
Sky conditions: clear
Temperature: 16.0 F (-8.9 C)
Dew Point: 12.9 F (-10.6 C)
Relative Humidity: 87%
Pressure (altimeter): 30.06 in. Hg (1017 hPa)
ob: KBIS 271352Z 00000KT 10SM CLR M09/M11 A3006 RMK AO2 SLP205 T10891106
cycle: 14

Station Type Date Time Source
KBIS TAF 2020/11/27 12:34 UTC NOAA

TAF KBIS 271132Z 2712/2812 VRB05KT P6SM FEW180
FM271700 25012G22KT P6SM SCT180
FM280100 23008KT P6SM FEW200 WS020/30035KT

Example: see airport list